Time;durP1;ratioP1;P1;durP2;ratioP2;P2;SDS_P1;SDS_P2;PMS_P1;PMS_P2;Temp;Humidity;BMP_temperature;BMP_pressure;BME280_temperature;BME280_humidity;BME280_pressure;Samples;Min_cycle;Max_cycle;Signal;HPM_P1;HPM_P2
2023/05/19 00:01:16;;;;;;;6.25;1.92;;;5.10;99.90;;;;;;5002310;28;20100;-65
2023/05/19 00:03:57;;;;;;;12.25;3.65;;;5.10;99.90;;;;;;4998103;28;20089;-67
2023/05/19 00:06:26;;;;;;;5.50;2.58;;;5.10;99.90;;;;;;5003488;28;20053;-59
2023/05/19 00:09:07;;;;;;;4.70;2.58;;;5.10;99.90;;;;;;5001029;28;20104;-61
2023/05/19 00:11:36;;;;;;;7.53;2.20;;;5.00;99.90;;;;;;5000305;28;20116;-61
2023/05/19 00:14:06;;;;;;;19.20;4.78;;;5.00;99.90;;;;;;5003610;28;20140;-62
2023/05/19 00:16:34;;;;;;;6.53;2.00;;;5.00;99.90;;;;;;4995796;28;20045;-63
2023/05/19 00:19:03;;;;;;;11.75;3.70;;;5.00;99.90;;;;;;5000827;28;20295;-66
2023/05/19 00:21:30;;;;;;;4.97;3.25;;;5.00;99.90;;;;;;4998883;28;20141;-73
2023/05/19 00:23:58;;;;;;;5.75;3.65;;;4.90;99.90;;;;;;5000973;28;20818;-67
2023/05/19 00:26:26;;;;;;;5.63;3.17;;;4.90;99.90;;;;;;5001044;28;20041;-63
2023/05/19 00:28:58;;;;;;;6.07;3.63;;;4.90;99.90;;;;;;4979378;28;20049;-64
2023/05/19 00:31:25;;;;;;;14.27;3.88;;;4.90;99.90;;;;;;4998022;28;20053;-62
2023/05/19 00:33:53;;;;;;;9.50;3.95;;;4.90;99.90;;;;;;4981894;28;20119;-61
2023/05/19 00:36:20;;;;;;;11.15;2.63;;;4.90;99.90;;;;;;5002380;28;20053;-63
2023/05/19 00:38:49;;;;;;;6.63;2.35;;;4.80;99.90;;;;;;4985733;28;20049;-63
2023/05/19 00:41:16;;;;;;;5.35;2.58;;;4.80;99.90;;;;;;5000524;28;20050;-66
2023/05/19 00:43:43;;;;;;;12.77;3.63;;;4.80;99.90;;;;;;5001011;28;20157;-64
2023/05/19 00:46:10;;;;;;;10.38;2.72;;;4.80;99.90;;;;;;4973929;28;20428;-61
2023/05/19 00:48:37;;;;;;;6.63;2.78;;;4.80;99.90;;;;;;4984102;28;20049;-68
2023/05/19 00:51:05;;;;;;;8.43;3.40;;;4.80;99.90;;;;;;4999562;28;20558;-59
2023/05/19 00:53:33;;;;;;;9.10;3.75;;;4.70;99.90;;;;;;4984181;28;20050;-63
2023/05/19 00:56:01;;;;;;;9.27;3.88;;;4.70;99.90;;;;;;5000605;28;20472;-67
2023/05/19 00:58:31;;;;;;;8.45;4.38;;;4.70;99.90;;;;;;4984753;28;20069;-61
2023/05/19 01:01:02;;;;;;;10.10;4.13;;;4.80;99.90;;;;;;4998191;28;20633;-65
2023/05/19 01:03:33;;;;;;;5.60;3.92;;;4.80;99.90;;;;;;5001303;28;20524;-61
2023/05/19 01:06:04;;;;;;;9.35;2.63;;;4.70;99.90;;;;;;4999400;28;20088;-64
2023/05/19 01:08:32;;;;;;;12.88;3.95;;;4.70;99.90;;;;;;5001810;28;20080;-63
2023/05/19 01:10:59;;;;;;;9.55;4.75;;;4.70;99.90;;;;;;5001175;28;20053;-60
2023/05/19 01:13:27;;;;;;;9.50;3.30;;;4.70;99.90;;;;;;4996406;28;20464;-64
2023/05/19 01:16:07;;;;;;;10.32;3.35;;;4.70;99.90;;;;;;4999823;28;20053;-64
2023/05/19 01:18:40;;;;;;;9.32;3.75;;;4.60;99.90;;;;;;5001365;28;20081;-70
2023/05/19 01:21:45;;;;;;;7.82;3.55;;;4.60;99.90;;;;;;5001712;28;20061;-62
2023/05/19 01:24:22;;;;;;;8.15;3.78;;;4.60;99.90;;;;;;4998809;28;20563;-67
2023/05/19 01:27:10;;;;;;;7.10;3.67;;;4.50;99.90;;;;;;4999907;28;20136;-63
2023/05/19 01:29:47;;;;;;;4.82;3.90;;;4.50;99.90;;;;;;4999627;28;20046;-62
2023/05/19 01:32:19;;;;;;;6.82;3.85;;;4.50;99.90;;;;;;5000386;28;20073;-68
2023/05/19 01:34:49;;;;;;;10.02;3.53;;;4.50;99.90;;;;;;4981983;28;20056;-70
2023/05/19 01:37:17;;;;;;;8.63;3.78;;;4.40;99.90;;;;;;4981830;28;20066;-68
2023/05/19 01:39:46;;;;;;;7.32;3.45;;;4.40;99.90;;;;;;4998916;28;20042;-62
2023/05/19 01:42:15;;;;;;;13.50;3.53;;;4.40;99.90;;;;;;4983217;28;20054;-62
2023/05/19 01:44:43;;;;;;;8.65;4.40;;;4.40;99.90;;;;;;4986117;28;20062;-70
2023/05/19 01:47:10;;;;;;;8.40;3.05;;;4.40;99.90;;;;;;5004378;28;20070;-62
2023/05/19 01:49:37;;;;;;;5.85;3.08;;;4.30;99.90;;;;;;5001917;28;20054;-65
2023/05/19 01:52:04;;;;;;;10.48;2.75;;;4.30;99.90;;;;;;5000999;28;20065;-62
2023/05/19 01:54:31;;;;;;;12.82;4.43;;;4.30;99.90;;;;;;4986239;28;20475;-61
2023/05/19 01:57:28;;;;;;;6.38;2.88;;;4.20;99.90;;;;;;5003804;28;20057;-67
2023/05/19 02:00:11;;;;;;;9.63;4.88;;;4.20;99.90;;;;;;4985858;28;20050;-71
2023/05/19 02:03:07;;;;;;;10.02;2.72;;;4.20;99.90;;;;;;4984300;28;20046;-62
2023/05/19 02:05:42;;;;;;;5.57;3.00;;;4.20;99.90;;;;;;5003544;28;20041;-71
2023/05/19 02:08:41;;;;;;;5.68;3.53;;;4.20;99.90;;;;;;5004303;28;20050;-69
2023/05/19 02:11:30;;;;;;;14.18;4.25;;;4.20;99.90;;;;;;4999799;28;20414;-61
2023/05/19 02:14:02;;;;;;;8.30;3.65;;;4.20;99.90;;;;;;5003945;28;20420;-71
2023/05/19 02:16:29;;;;;;;;;;;4.10;99.90;;;;;;4989332;28;20052;-63
2023/05/19 02:18:58;;;;;;;7.47;3.47;;;4.10;99.90;;;;;;4987979;28;20020;-64
2023/05/19 02:21:25;;;;;;;8.45;5.18;;;4.10;99.90;;;;;;4982951;28;21988;-65
2023/05/19 02:23:53;;;;;;;8.07;4.40;;;4.10;99.90;;;;;;5005410;28;20050;-61
2023/05/19 02:26:21;;;;;;;17.52;4.15;;;4.10;99.90;;;;;;5003339;28;20516;-67
2023/05/19 02:28:48;;;;;;;10.10;3.72;;;4.10;99.90;;;;;;5005165;28;20499;-62
2023/05/19 02:31:16;;;;;;;6.45;4.03;;;4.10;99.90;;;;;;5004473;28;20058;-67
2023/05/19 02:33:43;;;;;;;8.98;4.35;;;4.00;99.90;;;;;;5003346;28;20057;-65
2023/05/19 02:36:10;;;;;;;10.23;4.63;;;4.00;99.90;;;;;;5004364;28;20139;-76
2023/05/19 02:38:37;;;;;;;11.73;4.65;;;4.00;99.90;;;;;;4988416;28;20461;-65
2023/05/19 02:41:04;;;;;;;10.60;4.25;;;4.00;99.90;;;;;;4976863;28;20054;-62
2023/05/19 02:43:31;;;;;;;11.07;5.57;;;4.00;99.90;;;;;;5000891;28;20096;-73
2023/05/19 02:45:58;;;;;;;11.77;3.67;;;4.00;99.90;;;;;;4987659;28;20072;-65
2023/05/19 02:48:25;;;;;;;14.02;4.65;;;4.10;99.90;;;;;;4986727;28;20055;-67
2023/05/19 02:50:52;;;;;;;10.65;4.00;;;4.10;99.90;;;;;;4986058;28;20050;-66
2023/05/19 02:53:19;;;;;;;8.52;3.60;;;4.10;99.90;;;;;;5004602;28;20492;-61
2023/05/19 02:55:46;;;;;;;9.18;4.40;;;4.00;99.90;;;;;;5003145;28;20132;-67
2023/05/19 02:58:13;;;;;;;10.38;4.18;;;4.00;99.90;;;;;;5004643;28;20080;-66
2023/05/19 03:00:40;;;;;;;9.30;3.85;;;4.00;99.90;;;;;;5007063;28;20054;-66
2023/05/19 03:03:09;;;;;;;7.72;4.15;;;4.10;99.90;;;;;;5006057;28;20629;-65
2023/05/19 03:05:36;;;;;;;16.20;4.05;;;4.10;99.90;;;;;;4986118;28;20879;-64
2023/05/19 03:08:03;;;;;;;9.25;3.92;;;4.10;99.90;;;;;;5005844;28;20069;-62
2023/05/19 03:10:30;;;;;;;11.20;3.60;;;4.10;99.90;;;;;;5004425;28;20091;-73
2023/05/19 03:12:57;;;;;;;7.10;4.65;;;4.20;99.90;;;;;;5002944;28;20045;-63
2023/05/19 03:15:24;;;;;;;11.60;3.05;;;4.20;99.90;;;;;;5003039;28;20053;-68
2023/05/19 03:17:51;;;;;;;9.55;3.22;;;4.20;99.90;;;;;;5004349;28;20054;-67
2023/05/19 03:20:18;;;;;;;10.77;3.33;;;4.30;99.90;;;;;;5006972;28;20057;-72
2023/05/19 03:22:45;;;;;;;9.60;3.88;;;4.30;99.90;;;;;;4988292;28;20046;-64
2023/05/19 03:25:12;;;;;;;10.45;4.15;;;4.30;99.90;;;;;;5003691;28;20058;-63
2023/05/19 03:27:39;;;;;;;10.30;4.95;;;4.40;99.90;;;;;;4985453;28;20139;-70
2023/05/19 03:30:07;;;;;;;9.00;3.60;;;4.40;99.90;;;;;;5006442;28;20735;-65
2023/05/19 03:32:44;;;;;;;10.55;4.97;;;4.50;99.90;;;;;;4986792;28;20064;-63
2023/05/19 03:35:11;;;;;;;14.00;3.70;;;4.60;99.90;;;;;;4986240;28;20101;-65
2023/05/19 03:37:38;;;;;;;13.20;4.47;;;4.60;99.90;;;;;;4982633;28;20050;-69
2023/05/19 03:40:06;;;;;;;13.88;4.30;;;4.70;99.90;;;;;;4985537;28;20065;-61
2023/05/19 03:42:35;;;;;;;;;;;4.70;99.90;;;;;;4978299;28;20148;-63
2023/05/19 03:45:03;;;;;;;20.35;5.00;;;4.80;99.90;;;;;;4985143;28;20548;-64
2023/05/19 03:47:30;;;;;;;9.20;4.32;;;4.90;99.90;;;;;;4984704;28;20496;-65
2023/05/19 03:50:16;;;;;;;5.72;3.35;;;4.90;99.90;;;;;;5004124;28;20395;-63
2023/05/19 03:52:59;;;;;;;9.60;3.10;;;5.00;99.90;;;;;;4984565;28;20104;-69
2023/05/19 03:55:28;;;;;;;12.43;3.78;;;5.10;99.90;;;;;;4985235;28;20157;-68
2023/05/19 03:57:56;;;;;;;9.73;3.10;;;5.30;99.90;;;;;;4985975;28;20049;-61
2023/05/19 04:00:23;;;;;;;14.32;4.03;;;5.40;99.90;;;;;;5001666;28;20045;-70
2023/05/19 04:02:50;;;;;;;9.88;5.30;;;5.50;99.90;;;;;;4984353;28;20085;-64
2023/05/19 04:05:17;;;;;;;14.25;4.72;;;5.60;99.90;;;;;;5002690;28;20050;-65
2023/05/19 04:07:45;;;;;;;18.15;4.47;;;5.60;99.90;;;;;;4983951;28;20589;-62
2023/05/19 04:10:13;;;;;;;8.90;3.60;;;5.70;99.90;;;;;;5000834;28;20057;-69
2023/05/19 04:12:40;;;;;;;18.95;5.22;;;5.80;99.90;;;;;;4984403;28;20057;-64
2023/05/19 04:15:10;;;;;;;11.05;3.78;;;5.80;99.90;;;;;;4983471;28;20054;-62
2023/05/19 04:17:37;;;;;;;6.10;3.13;;;5.90;99.90;;;;;;4999455;28;20051;-64
2023/05/19 04:20:05;;;;;;;12.40;4.82;;;6.00;99.90;;;;;;4983669;28;20291;-62
2023/05/19 04:22:32;;;;;;;13.40;5.28;;;6.10;99.90;;;;;;5004376;28;20069;-65
2023/05/19 04:24:59;;;;;;;9.10;4.03;;;6.10;99.90;;;;;;5002104;28;20103;-61
2023/05/19 04:27:28;;;;;;;9.23;3.97;;;6.20;99.90;;;;;;4984330;28;20050;-64
2023/05/19 04:29:56;;;;;;;7.45;3.45;;;6.30;99.90;;;;;;4986597;28;20045;-62
2023/05/19 04:32:24;;;;;;;12.30;3.70;;;6.40;99.90;;;;;;4982585;28;20084;-71
2023/05/19 04:34:52;;;;;;;12.05;3.47;;;6.60;99.90;;;;;;4986323;28;20064;-72
2023/05/19 04:37:24;;;;;;;9.88;4.47;;;6.60;99.90;;;;;;5000468;28;20132;-68
2023/05/19 04:39:53;;;;;;;8.55;3.20;;;6.70;99.90;;;;;;4989440;28;20056;-70
2023/05/19 04:42:24;;;;;;;7.82;3.95;;;6.90;99.90;;;;;;4986585;28;20061;-63
2023/05/19 04:44:53;;;;;;;8.07;3.30;;;7.00;99.90;;;;;;4985506;28;20065;-65
2023/05/19 04:47:26;;;;;;;7.57;3.60;;;7.20;99.90;;;;;;4986252;28;20054;-64
2023/05/19 04:49:54;;;;;;;10.90;3.88;;;7.20;99.90;;;;;;4984237;28;20132;-63
2023/05/19 04:52:21;;;;;;;7.05;3.13;;;7.40;99.90;;;;;;4979221;28;20054;-65
2023/05/19 04:54:49;;;;;;;7.57;2.50;;;7.40;99.90;;;;;;4983555;28;20080;-69
2023/05/19 04:57:16;;;;;;;10.82;5.35;;;7.50;99.90;;;;;;4983757;28;20396;-75
2023/05/19 04:59:45;;;;;;;9.50;3.00;;;7.60;99.90;;;;;;4978146;28;20552;-64
2023/05/19 05:02:12;;;;;;;10.82;4.05;;;7.60;99.90;;;;;;4984152;28;20079;-72
2023/05/19 05:04:41;;;;;;;5.63;2.10;;;7.60;99.90;;;;;;4980497;28;20459;-64
2023/05/19 05:07:09;;;;;;;;;;;7.70;99.90;;;;;;4984489;28;20140;-64
2023/05/19 05:09:37;;;;;;;3.45;2.15;;;7.80;99.90;;;;;;4973715;28;19932;-68
2023/05/19 05:12:06;;;;;;;8.48;3.15;;;7.80;99.90;;;;;;4982844;28;20046;-62
2023/05/19 05:14:35;;;;;;;4.97;2.63;;;7.90;99.90;;;;;;4984088;28;20407;-66
2023/05/19 05:17:02;;;;;;;7.78;2.03;;;7.90;99.90;;;;;;4980405;28;20062;-70
2023/05/19 05:19:31;;;;;;;9.65;2.38;;;8.00;99.90;;;;;;4998539;28;20495;-73
2023/05/19 05:21:58;;;;;;;5.32;2.22;;;8.10;99.90;;;;;;4984532;28;20053;-74
2023/05/19 05:24:26;;;;;;;8.13;2.47;;;8.20;99.90;;;;;;5004458;28;20499;-62
2023/05/19 05:26:57;;;;;;;7.65;2.63;;;8.20;99.90;;;;;;5001799;28;20068;-63
2023/05/19 05:29:25;;;;;;;7.05;1.83;;;8.30;99.90;;;;;;4985815;28;20057;-62
2023/05/19 05:31:52;;;;;;;2.60;1.90;;;8.40;99.90;;;;;;4988598;28;20058;-62
2023/05/19 05:34:19;;;;;;;11.20;3.17;;;8.50;99.90;;;;;;4980688;28;20423;-69
2023/05/19 05:36:47;;;;;;;7.55;2.40;;;8.50;99.90;;;;;;5001638;28;20050;-61
2023/05/19 05:39:14;;;;;;;7.95;2.53;;;8.70;99.90;;;;;;4987011;28;20054;-64
2023/05/19 05:41:43;;;;;;;4.85;2.10;;;8.90;99.90;;;;;;4984754;28;20143;-63
2023/05/19 05:44:11;;;;;;;7.15;2.38;;;9.00;99.90;;;;;;4987050;28;20124;-67
2023/05/19 05:46:40;;;;;;;5.45;1.02;;;9.10;99.90;;;;;;4988847;28;20050;-68
2023/05/19 05:49:08;;;;;;;2.38;1.10;;;9.20;99.90;;;;;;4997446;28;20583;-60
2023/05/19 05:51:35;;;;;;;6.40;1.55;;;9.20;99.90;;;;;;4986858;28;20053;-67
2023/05/19 05:54:05;;;;;;;6.50;2.13;;;9.30;99.90;;;;;;4987365;28;20172;-62
2023/05/19 05:56:37;;;;;;;6.47;2.15;;;9.40;99.90;;;;;;4985590;28;20436;-65
2023/05/19 05:59:06;;;;;;;5.10;1.50;;;9.50;99.90;;;;;;4987284;28;20092;-70
2023/05/19 06:01:35;;;;;;;6.13;1.63;;;9.60;99.90;;;;;;4986795;28;20559;-62
2023/05/19 06:04:03;;;;;;;4.03;1.30;;;9.70;99.90;;;;;;4985784;28;20050;-63
2023/05/19 06:06:31;;;;;;;1.58;1.48;;;9.90;99.90;;;;;;4985048;28;20046;-69
2023/05/19 06:09:00;;;;;;;3.20;1.20;;;10.10;99.90;;;;;;4986370;28;20516;-60
2023/05/19 06:11:28;;;;;;;7.40;2.10;;;10.10;99.90;;;;;;4984980;28;20073;-65
2023/05/19 06:13:57;;;;;;;2.78;1.40;;;10.20;99.90;;;;;;4979771;28;20413;-62
2023/05/19 06:16:50;;;;;;;2.60;2.22;;;10.30;99.90;;;;;;5002176;28;20146;-70
2023/05/19 06:19:18;;;;;;;4.50;0.88;;;10.50;99.90;;;;;;5005848;28;20089;-76
2023/05/19 06:21:45;;;;;;;5.25;1.08;;;10.60;99.90;;;;;;5001370;28;20042;-65
2023/05/19 06:24:13;;;;;;;2.47;0.90;;;10.70;99.90;;;;;;4986559;28;20050;-70
2023/05/19 06:26:40;;;;;;;5.20;1.45;;;10.90;99.90;;;;;;4983382;28;20050;-66
2023/05/19 06:29:07;;;;;;;1.55;1.00;;;10.90;99.90;;;;;;4985705;28;20053;-63
2023/05/19 06:31:34;;;;;;;1.75;0.82;;;10.90;99.90;;;;;;5003445;28;20131;-73
2023/05/19 06:34:11;;;;;;;2.60;1.10;;;11.00;99.90;;;;;;4987577;28;20153;-67
2023/05/19 06:36:40;;;;;;;2.22;1.02;;;11.10;99.90;;;;;;4987234;28;20057;-69
2023/05/19 06:39:08;;;;;;;1.90;0.93;;;11.20;99.90;;;;;;4988700;28;20167;-67
2023/05/19 06:41:35;;;;;;;3.45;1.58;;;11.30;99.90;;;;;;4982628;28;20145;-61
2023/05/19 06:44:03;;;;;;;3.05;1.17;;;11.30;99.90;;;;;;4987771;28;20057;-68
2023/05/19 06:46:32;;;;;;;4.22;2.00;;;11.40;99.90;;;;;;4985428;28;20066;-64
2023/05/19 06:48:59;;;;;;;2.63;1.63;;;11.40;99.90;;;;;;4985097;28;20049;-65
2023/05/19 06:51:30;;;;;;;;;;;11.50;99.90;;;;;;4984154;28;20045;-67
2023/05/19 06:53:58;;;;;;;3.40;1.75;;;11.60;99.90;;;;;;4988210;28;19925;-67
2023/05/19 06:56:26;;;;;;;6.40;1.88;;;11.70;99.90;;;;;;4986167;28;20046;-61
2023/05/19 06:58:52;;;;;;;5.85;1.83;;;11.80;99.90;;;;;;5004438;28;20135;-65
2023/05/19 07:01:26;;;;;;;4.50;1.52;;;11.90;99.90;;;;;;4984633;28;20136;-62
2023/05/19 07:03:54;;;;;;;;;;;12.00;99.90;;;;;;4984331;28;20050;-60
2023/05/19 07:06:21;;;;;;;7.15;2.00;;;12.10;99.90;;;;;;4998088;28;19984;-64
2023/05/19 07:08:49;;;;;;;3.67;1.20;;;12.20;99.90;;;;;;4986677;28;20112;-66
2023/05/19 07:11:17;;;;;;;4.72;2.08;;;12.20;99.90;;;;;;4985172;28;20466;-74
2023/05/19 07:13:44;;;;;;;2.63;1.45;;;12.30;99.90;;;;;;5002626;28;23368;-68
2023/05/19 07:16:14;;;;;;;2.22;1.40;;;12.40;99.90;;;;;;4983465;28;20050;-67
2023/05/19 07:18:43;;;;;;;3.67;1.13;;;12.40;99.90;;;;;;4984156;28;20497;-72
2023/05/19 07:21:10;;;;;;;4.28;1.38;;;12.50;99.90;;;;;;5004513;28;20058;-63
2023/05/19 07:23:37;;;;;;;4.65;1.60;;;12.60;99.90;;;;;;4985416;28;20056;-64
2023/05/19 07:26:04;;;;;;;5.57;1.55;;;12.60;99.90;;;;;;5000180;28;20145;-70
2023/05/19 07:28:33;;;;;;;2.00;1.38;;;12.70;99.90;;;;;;5003140;28;20415;-68
2023/05/19 07:31:00;;;;;;;3.35;1.52;;;12.80;99.90;;;;;;5005062;28;20061;-68
2023/05/19 07:33:27;;;;;;;5.38;1.20;;;12.90;99.90;;;;;;5004367;28;20049;-64
2023/05/19 07:35:54;;;;;;;3.75;1.58;;;13.00;99.90;;;;;;5003934;28;20041;-62
2023/05/19 07:38:21;;;;;;;3.97;1.20;;;13.00;99.90;;;;;;5004470;28;20049;-63
2023/05/19 07:40:47;;;;;;;3.10;1.13;;;13.00;99.90;;;;;;5004441;28;20046;-66
2023/05/19 07:43:14;;;;;;;4.85;1.45;;;13.10;99.90;;;;;;5002808;28;20125;-61
2023/05/19 07:45:41;;;;;;;4.63;1.50;;;13.10;99.90;;;;;;4999685;28;20054;-74
2023/05/19 07:48:08;;;;;;;5.75;3.05;;;13.10;99.90;;;;;;5004764;28;20069;-62
2023/05/19 07:50:35;;;;;;;8.73;2.22;;;13.20;99.90;;;;;;5002654;28;20034;-65
2023/05/19 07:53:02;;;;;;;10.18;2.22;;;13.20;99.90;;;;;;5001360;28;20056;-70
2023/05/19 07:55:29;;;;;;;10.15;3.72;;;13.00;99.90;;;;;;5002398;28;20054;-64
2023/05/19 07:57:56;;;;;;;11.27;3.22;;;12.80;99.90;;;;;;5002690;28;20068;-65
2023/05/19 08:00:23;;;;;;;11.40;3.13;;;12.80;99.90;;;;;;5002514;28;20050;-65
2023/05/19 08:02:51;;;;;;;16.77;4.00;;;12.70;99.90;;;;;;5002192;28;20495;-70
2023/05/19 08:05:18;;;;;;;9.13;3.40;;;12.70;99.90;;;;;;5004443;28;20073;-64
2023/05/19 08:07:45;;;;;;;10.23;2.90;;;12.60;99.90;;;;;;5003039;28;20112;-62
2023/05/19 08:10:12;;;;;;;5.88;3.03;;;12.60;99.90;;;;;;5003816;28;20136;-62
2023/05/19 08:12:39;;;;;;;22.58;3.00;;;12.60;99.90;;;;;;5003928;28;20077;-68
2023/05/19 08:15:07;;;;;;;6.72;2.90;;;12.40;99.90;;;;;;5003930;28;20151;-60
2023/05/19 08:17:34;;;;;;;6.55;2.80;;;12.20;99.90;;;;;;4998968;28;20141;-60
2023/05/19 08:20:03;;;;;;;7.32;2.85;;;12.30;99.90;;;;;;5001679;28;20068;-63
2023/05/19 08:22:30;;;;;;;10.18;3.63;;;12.40;99.90;;;;;;5001181;28;20080;-62
2023/05/19 08:24:57;;;;;;;12.30;3.83;;;12.20;99.90;;;;;;5001388;28;20104;-65
2023/05/19 08:27:24;;;;;;;11.55;3.47;;;12.20;99.90;;;;;;5000694;28;20145;-62
2023/05/19 08:29:51;;;;;;;7.68;2.72;;;12.30;99.90;;;;;;5002676;28;20042;-62
2023/05/19 08:32:18;;;;;;;8.45;2.60;;;12.40;99.90;;;;;;5003602;28;20736;-61
2023/05/19 08:34:45;;;;;;;7.95;3.30;;;12.50;99.90;;;;;;5002521;28;20157;-63
2023/05/19 08:37:12;;;;;;;7.40;4.32;;;12.20;99.90;;;;;;5001777;28;20741;-62
2023/05/19 08:39:39;;;;;;;13.35;4.00;;;12.30;99.90;;;;;;5001241;28;20045;-64
2023/05/19 08:42:08;;;;;;;7.15;3.42;;;12.30;99.90;;;;;;5001911;28;20050;-61
2023/05/19 08:44:38;;;;;;;14.93;4.93;;;12.20;99.90;;;;;;5001553;28;20941;-61
2023/05/19 08:47:11;;;;;;;;;;;12.10;99.90;;;;;;5002427;28;20399;-61
2023/05/19 08:49:45;;;;;;;10.23;3.42;;;12.10;99.90;;;;;;5002074;28;19925;-63
2023/05/19 08:52:44;;;;;;;5.88;3.75;;;11.90;99.90;;;;;;5003737;28;20050;-67
2023/05/19 08:55:24;;;;;;;15.07;5.25;;;11.90;99.90;;;;;;4999189;28;20081;-63
2023/05/19 08:57:51;;;;;;;8.20;2.63;;;11.80;99.90;;;;;;4999837;28;20080;-68
2023/05/19 09:00:19;;;;;;;10.65;3.67;;;11.90;99.90;;;;;;5002652;28;20158;-64
2023/05/19 09:02:50;;;;;;;6.50;3.03;;;11.80;99.90;;;;;;5000454;28;20073;-62
2023/05/19 09:05:31;;;;;;;10.55;2.78;;;11.80;99.90;;;;;;4999365;28;20060;-70
2023/05/19 09:08:01;;;;;;;9.13;3.38;;;11.90;99.90;;;;;;5002991;28;20073;-61
2023/05/19 09:10:28;;;;;;;8.98;3.80;;;11.90;99.90;;;;;;5000526;28;20042;-61
2023/05/19 09:12:55;;;;;;;11.48;2.95;;;12.00;99.90;;;;;;5002373;28;20061;-66
2023/05/19 09:15:26;;;;;;;9.05;3.17;;;12.00;99.90;;;;;;5002708;28;20149;-66
2023/05/19 09:18:10;;;;;;;9.05;4.00;;;11.90;99.90;;;;;;5000474;28;20116;-63
2023/05/19 09:20:39;;;;;;;14.32;3.83;;;12.00;99.90;;;;;;5001944;28;20062;-61
2023/05/19 09:23:07;;;;;;;10.35;2.53;;;11.90;99.90;;;;;;5001694;28;20069;-65
2023/05/19 09:25:34;;;;;;;12.73;3.50;;;12.00;99.90;;;;;;4999471;28;20554;-61
2023/05/19 09:28:01;;;;;;;10.07;4.28;;;12.20;99.90;;;;;;5001122;28;20076;-65
2023/05/19 09:30:28;;;;;;;5.20;2.40;;;12.10;99.90;;;;;;5001155;28;20064;-61
2023/05/19 09:32:55;;;;;;;11.75;2.92;;;11.90;99.90;;;;;;4998829;28;20062;-66
2023/05/19 09:35:23;;;;;;;8.50;3.33;;;12.00;99.90;;;;;;5000330;28;20069;-70
2023/05/19 09:37:49;;;;;;;11.75;4.05;;;12.10;99.90;;;;;;5000008;28;20062;-67
2023/05/19 09:40:16;;;;;;;7.40;3.47;;;12.20;99.90;;;;;;5000834;28;20519;-63
2023/05/19 09:42:43;;;;;;;10.43;4.05;;;12.30;99.90;;;;;;5001496;28;20050;-65
2023/05/19 09:45:10;;;;;;;8.10;2.35;;;12.30;99.90;;;;;;5001266;28;20064;-67
2023/05/19 09:47:39;;;;;;;10.07;3.10;;;12.30;99.90;;;;;;4998844;28;20081;-62
2023/05/19 09:50:09;;;;;;;10.95;3.67;;;12.40;99.90;;;;;;5001662;28;20059;-61
2023/05/19 09:52:42;;;;;;;13.17;3.97;;;12.30;99.90;;;;;;4975862;28;20050;-66
2023/05/19 09:55:11;;;;;;;6.45;3.60;;;12.20;99.90;;;;;;5001888;28;20842;-66
2023/05/19 09:57:39;;;;;;;11.60;3.65;;;12.40;99.90;;;;;;4998468;28;20058;-65
2023/05/19 10:00:13;;;;;;;8.00;2.65;;;12.40;99.90;;;;;;4999828;28;20049;-65
2023/05/19 10:02:42;;;;;;;10.65;4.57;;;12.50;99.90;;;;;;5001534;28;20100;-67
2023/05/19 10:05:19;;;;;;;14.20;3.23;;;12.40;99.90;;;;;;5002051;28;20137;-66
2023/05/19 10:07:50;;;;;;;4.38;2.20;;;12.40;99.90;;;;;;5003197;28;20424;-63
2023/05/19 10:10:20;;;;;;;10.18;3.53;;;12.30;99.90;;;;;;5002881;28;20057;-70
2023/05/19 10:12:48;;;;;;;11.82;3.03;;;12.40;99.90;;;;;;5003721;28;20050;-66
2023/05/19 10:15:17;;;;;;;9.00;2.95;;;12.30;99.90;;;;;;5005256;28;20155;-64
2023/05/19 10:17:48;;;;;;;13.35;3.10;;;12.30;99.90;;;;;;5001032;28;20042;-62
2023/05/19 10:20:16;;;;;;;16.13;4.32;;;12.30;99.90;;;;;;5006033;28;20392;-62
2023/05/19 10:22:45;;;;;;;11.25;3.75;;;12.10;99.90;;;;;;5003631;28;20061;-74
2023/05/19 10:25:17;;;;;;;8.15;2.88;;;12.10;99.90;;;;;;5004964;28;20470;-63
2023/05/19 10:27:50;;;;;;;10.25;3.30;;;12.20;99.90;;;;;;5001813;28;20049;-68
2023/05/19 10:30:27;;;;;;;7.10;3.50;;;12.10;99.90;;;;;;5004550;28;20137;-65
2023/05/19 10:32:56;;;;;;;11.80;5.13;;;12.20;99.90;;;;;;5004357;28;20096;-61
2023/05/19 10:36:01;;;;;;;7.13;2.53;;;12.00;99.90;;;;;;5005074;28;20526;-64
2023/05/19 10:38:49;;;;;;;10.52;3.33;;;11.90;99.90;;;;;;5003865;28;20441;-70
2023/05/19 10:41:28;;;;;;;10.77;4.03;;;12.20;99.90;;;;;;5003500;28;20064;-71
2023/05/19 10:44:03;;;;;;;10.10;3.50;;;12.30;99.90;;;;;;5005343;28;20495;-71
2023/05/19 10:46:30;;;;;;;10.05;3.45;;;12.50;99.90;;;;;;5004241;28;20076;-66
2023/05/19 10:48:58;;;;;;;10.15;3.40;;;12.50;99.90;;;;;;5005038;28;20089;-66
2023/05/19 10:51:31;;;;;;;5.07;2.60;;;12.60;99.90;;;;;;5001979;28;20057;-62
2023/05/19 10:54:01;;;;;;;6.65;3.45;;;12.60;99.90;;;;;;5004549;28;20542;-68
2023/05/19 10:56:32;;;;;;;5.65;2.67;;;12.60;99.90;;;;;;5002985;28;20046;-65
2023/05/19 10:59:00;;;;;;;7.90;2.67;;;12.60;99.90;;;;;;5004075;28;20115;-60
2023/05/19 11:01:32;;;;;;;10.27;2.72;;;12.70;99.90;;;;;;5003020;28;20065;-63
2023/05/19 11:04:11;;;;;;;5.60;1.83;;;12.80;99.90;;;;;;5003900;28;20046;-61
2023/05/19 11:06:39;;;;;;;10.73;2.33;;;12.80;99.90;;;;;;5002224;28;20495;-61
2023/05/19 11:09:16;;;;;;;8.02;2.78;;;12.90;99.90;;;;;;5003750;28;20050;-71
2023/05/19 11:11:51;;;;;;;5.57;3.17;;;12.60;99.90;;;;;;5000123;28;20104;-65
2023/05/19 11:14:24;;;;;;;9.95;2.80;;;12.70;99.90;;;;;;5002777;28;20050;-60
2023/05/19 11:16:57;;;;;;;14.25;3.17;;;12.60;99.90;;;;;;5002727;28;20064;-62
2023/05/19 11:19:31;;;;;;;6.63;2.47;;;12.60;99.90;;;;;;5002859;28;20112;-67
2023/05/19 11:22:11;;;;;;;6.22;2.22;;;12.40;99.90;;;;;;5002719;28;20989;-69
2023/05/19 11:24:49;;;;;;;12.82;3.22;;;12.50;99.90;;;;;;5002969;28;20053;-61
2023/05/19 11:27:27;;;;;;;12.18;3.10;;;12.60;99.90;;;;;;5002821;28;20045;-62
2023/05/19 11:29:56;;;;;;;14.48;3.83;;;12.70;99.90;;;;;;4999367;28;20054;-65
2023/05/19 11:32:28;;;;;;;8.55;2.30;;;12.40;99.90;;;;;;5002447;28;20151;-60
2023/05/19 11:34:56;;;;;;;5.30;2.38;;;12.50;99.90;;;;;;5001338;28;20053;-63
2023/05/19 11:37:23;;;;;;;11.13;2.47;;;12.50;99.90;;;;;;5004628;28;20466;-64
2023/05/19 11:39:51;;;;;;;7.97;3.33;;;12.70;99.90;;;;;;5000818;28;20081;-73
2023/05/19 11:42:19;;;;;;;8.48;2.60;;;12.40;99.90;;;;;;5004026;28;20448;-65
2023/05/19 11:44:46;;;;;;;8.10;2.28;;;12.50;99.90;;;;;;5003123;28;20049;-61
2023/05/19 11:47:14;;;;;;;12.30;3.13;;;12.50;99.90;;;;;;5004372;28;20054;-61
2023/05/19 11:49:47;;;;;;;7.82;2.53;;;12.50;99.90;;;;;;5001150;28;20068;-67
2023/05/19 11:52:14;;;;;;;9.52;2.28;;;12.50;99.90;;;;;;4985851;28;20155;-74
2023/05/19 11:54:41;;;;;;;6.93;3.08;;;12.60;99.90;;;;;;5004543;28;20073;-67
2023/05/19 11:57:12;;;;;;;23.30;3.35;;;12.50;99.90;;;;;;5002573;28;20635;-68
2023/05/19 11:59:44;;;;;;;8.30;2.08;;;12.40;99.90;;;;;;4999458;28;20057;-66
2023/05/19 12:02:19;;;;;;;8.43;2.25;;;12.20;99.90;;;;;;5003198;28;20046;-66
2023/05/19 12:04:48;;;;;;;10.30;4.05;;;12.10;99.90;;;;;;5003629;28;20141;-61
2023/05/19 12:07:17;;;;;;;4.60;2.00;;;12.10;99.90;;;;;;5003014;28;20046;-66
2023/05/19 12:09:47;;;;;;;11.30;2.33;;;12.30;99.90;;;;;;5001695;28;20062;-66
2023/05/19 12:12:19;;;;;;;5.25;2.70;;;12.20;99.90;;;;;;5001743;28;20728;-65
2023/05/19 12:14:47;;;;;;;6.95;2.70;;;12.00;99.90;;;;;;4981740;28;20507;-70
2023/05/19 12:17:22;;;;;;;7.68;1.88;;;12.20;99.90;;;;;;5003557;28;20171;-70
2023/05/19 12:19:50;;;;;;;8.05;1.85;;;12.30;99.90;;;;;;5001567;28;20145;-62
2023/05/19 12:22:17;;;;;;;4.72;1.58;;;12.20;99.90;;;;;;5003126;28;20096;-62
2023/05/19 12:24:45;;;;;;;9.13;2.38;;;12.20;99.90;;;;;;5001721;28;20042;-66
2023/05/19 12:27:18;;;;;;;6.55;3.05;;;12.40;99.90;;;;;;5002075;28;20042;-63
2023/05/19 12:29:53;;;;;;;13.05;1.92;;;12.20;99.90;;;;;;4998689;28;20088;-62
2023/05/19 12:32:24;;;;;;;7.78;1.95;;;12.20;99.90;;;;;;5003173;28;20061;-62
2023/05/19 12:34:52;;;;;;;11.75;3.05;;;12.30;99.90;;;;;;5001210;28;20042;-61
2023/05/19 12:37:19;;;;;;;4.28;2.03;;;12.40;99.90;;;;;;5003610;28;20093;-64
2023/05/19 12:39:50;;;;;;;6.47;1.90;;;12.40;99.90;;;;;;5000712;28;20157;-67
2023/05/19 12:42:17;;;;;;;10.68;3.25;;;12.80;99.90;;;;;;5001701;28;20053;-67
2023/05/19 12:44:45;;;;;;;5.47;1.92;;;12.80;99.90;;;;;;5001447;28;20042;-67
2023/05/19 12:47:14;;;;;;;4.20;1.75;;;13.00;99.90;;;;;;5002292;28;20046;-63
2023/05/19 12:50:17;;;;;;;7.88;2.53;;;12.90;99.90;;;;;;5001385;28;20046;-63
2023/05/19 12:52:46;;;;;;;5.82;2.05;;;13.10;99.90;;;;;;4919909;29;20146;-65
2023/05/19 12:55:15;;;;;;;6.35;2.40;;;13.40;99.90;;;;;;4984389;28;20562;-68
2023/05/19 12:57:58;;;;;;;9.65;2.85;;;13.30;99.90;;;;;;4999905;28;20701;-67
2023/05/19 13:00:29;;;;;;;11.38;4.20;;;13.30;99.90;;;;;;4997141;28;20058;-67
2023/05/19 13:02:57;;;;;;;7.90;2.47;;;13.30;99.90;;;;;;5003452;28;20054;-69
2023/05/19 13:05:26;;;;;;;5.78;2.30;;;13.60;99.90;;;;;;5001459;28;20538;-62